Карточка аэропорта UOOO

Внимание!
Информация на этой странице в стадии наполнения.
Если вы не увидели какой-то информации, или заметили неточность - пожалуйста сообщите нам!
Спасибо!
Команда RU-STAFF
Название аэропортаАлыкель
Название аэропорта (англ.)Alykel
Превышение574 ft. (175 m.)
Координаты69°19.02', 87°19.02'
Высота перехода1200m
Эшелон переходаQFE>744:FL60;744>QFE>717:FL70;717>QFE:FL80
Коды ответчика5401-5427
Зона ОрВДКрасноярск РПИ (UNKL)
Данные METARUOOO 041700Z 25006MPS 1300 1200NE R19/P2000N SN DRSN OVC008 M08/M08 Q1018 R19/492032 NOSIG RMK QFE747/0996
Проноз погоды (TAF)UOOO 041352Z 0415/0515 21006MPS 1300 SN BLSN OVC004 TEMPO 0415/0424 0500 +SN BLSN VV002 BECMG 0500/0502 29008G17MPS 2500 -SN BLSN TEMPO 0502/0515 1300 SN BLSN
NOTAMshow/hide NOTAM
AWOS   TABLE

Информация о ВПП

ВПП Длина ВПП (м.) Покрытие Курс ВПП Частота ILS
013430Бетон13109.5
193430Бетон193110.3

Диспетчерские позиции

Позывной Наименование органа УВД Частота
UOOO_TWRНорильск - Старт118.300
UOOO_APPНорильск - Круг120.400
UOOO_GNDНорильск - Руление121.700



Спутниковое изображение